Lewes Beach, Delaware
Current Conditions -  °F | °C
As of 3:54 AM on Saturday 22 Nov 2014 (Local Time) from KGED Reporting Station
Clear Clear  
Wind Chill: -6°   Ceiling: Unl
Heat Index: -6°   Visibility: 10mi
Dew Point: -11°   Wind: 0mph
Humidity: 71%   Direction: NA
Pressure: 30.57"   Gusts: NA
Location:  38.7339°N, 75.1733°W
Report Text: KGED 220854Z AUTO 00000KT 10SM CLR M06/M11 A3057 RMK AO2 SLP351 T10611106 53004
Loading
Personal Weather Stations






























Interactive Weather Map New forecast layout! Learn more

10-Day Weather Forecast

Advertisements
Track Severe Weather on mobile